LPE26X SPZO-SPJC
Flight info
| Callsign | LPE26X |
|---|---|
| Flight time | N/A |
| Altitude | 30000 |
| Route | GAXUN UT321 UDENI UT332 PEROV |
| Aircraft | A20N/M-SDE2E3FGHIRWXY/LB1 |
Departure
| Time | 2026-05-06 02:10 |
|---|---|
| Airport | Alejandro Velasco Astete International Airport (SPZO) |
Arrival
| Time | N/A |
|---|---|
| Airport | Jorge Chávez International Airport (SPJC) |
| Time | Latitude | Longitude | Altitude | Speed | Heading |
|---|---|---|---|---|---|
| 2026-05-06 01:34 | -13.53740 | -71.94408 | 10674 ft | 0 kts | 146° |
| 2026-05-06 02:01 | -13.53739 | -71.94409 | 10816 ft | 1 kts | 146° |
| 2026-05-06 02:01 | -13.53734 | -71.94413 | 10816 ft | 0 kts | 146° |
| 2026-05-06 02:02 | -13.53733 | -71.94414 | 10816 ft | 0 kts | 146° |
| 2026-05-06 02:02 | -13.53723 | -71.94421 | 10816 ft | 3 kts | 146° |
| 2026-05-06 02:02 | -13.53707 | -71.94431 | 10816 ft | 0 kts | 146° |
| 2026-05-06 02:02 | -13.53706 | -71.94432 | 10816 ft | 4 kts | 146° |
| 2026-05-06 02:03 | -13.53682 | -71.94443 | 10815 ft | 4 kts | 168° |
| 2026-05-06 02:03 | -13.53657 | -71.94440 | 10815 ft | 4 kts | 257° |
| 2026-05-06 02:03 | -13.53656 | -71.94436 | 10815 ft | 0 kts | 268° |
| 2026-05-06 02:05 | -13.53656 | -71.94440 | 10815 ft | 0 kts | 268° |
| 2026-05-06 02:05 | -13.53656 | -71.94443 | 10815 ft | 3 kts | 275° |
| 2026-05-06 02:05 | -13.53647 | -71.94497 | 10816 ft | 11 kts | 279° |
| 2026-05-06 02:05 | -13.53638 | -71.94583 | 10819 ft | 12 kts | 276° |
| 2026-05-06 02:06 | -13.53629 | -71.94669 | 10822 ft | 13 kts | 276° |
| 2026-05-06 02:06 | -13.53620 | -71.94758 | 10830 ft | 12 kts | 275° |
| 2026-05-06 02:06 | -13.53609 | -71.94860 | 10837 ft | 18 kts | 276° |
| 2026-05-06 02:06 | -13.53595 | -71.95004 | 10851 ft | 23 kts | 276° |
| 2026-05-06 02:07 | -13.53577 | -71.95179 | 10861 ft | 27 kts | 275° |
| 2026-05-06 02:07 | -13.53558 | -71.95376 | 10863 ft | 28 kts | 276° |
| 2026-05-06 02:07 | -13.53503 | -71.95428 | 10863 ft | 0 kts | 21° |
| 2026-05-06 02:08 | -13.53502 | -71.95429 | 10863 ft | 0 kts | 13° |
| 2026-05-06 02:08 | -13.53476 | -71.95427 | 10864 ft | 10 kts | 6° |
| 2026-05-06 02:08 | -13.53417 | -71.95388 | 10868 ft | 12 kts | 93° |
| 2026-05-06 02:09 | -13.53450 | -71.95140 | 10861 ft | 70 kts | 96° |
| 2026-05-06 02:09 | -13.53519 | -71.94391 | 10814 ft | 137 kts | 96° |
| 2026-05-06 02:09 | -13.53628 | -71.93258 | 10912 ft | 174 kts | 96° |
| 2026-05-06 02:09 | -13.53834 | -71.92034 | 11187 ft | 182 kts | 99° |
| 2026-05-06 02:10 | -13.54093 | -71.90698 | 11487 ft | 202 kts | 102° |
| 2026-05-06 02:10 | -13.54447 | -71.89257 | 12071 ft | 213 kts | 104° |
| 2026-05-06 02:10 | -13.54868 | -71.87762 | 12514 ft | 225 kts | 109° |
| 2026-05-06 02:10 | -13.55450 | -71.86179 | 12634 ft | 249 kts | 108° |
| 2026-05-06 02:11 | -13.55993 | -71.84402 | 12783 ft | 272 kts | 107° |
| 2026-05-06 02:11 | -13.56619 | -71.82503 | 13037 ft | 286 kts | 109° |
| 2026-05-06 02:11 | -13.57362 | -71.80598 | 13678 ft | 288 kts | 111° |
| 2026-05-06 02:11 | -13.58125 | -71.78680 | 14369 ft | 290 kts | 108° |
| 2026-05-06 02:12 | -13.58555 | -71.76682 | 14938 ft | 291 kts | 93° |
| 2026-05-06 02:12 | -13.58483 | -71.74610 | 15563 ft | 291 kts | 79° |
| 2026-05-06 02:12 | -13.57925 | -71.72611 | 16149 ft | 293 kts | 66° |
| 2026-05-06 02:12 | -13.56906 | -71.70795 | 16729 ft | 296 kts | 52° |
| 2026-05-06 02:13 | -13.55472 | -71.69270 | 17315 ft | 299 kts | 39° |
| 2026-05-06 02:13 | -13.53690 | -71.68132 | 17866 ft | 305 kts | 25° |
| 2026-05-06 02:13 | -13.51670 | -71.67425 | 18442 ft | 309 kts | 18° |
| 2026-05-06 02:13 | -13.49596 | -71.66798 | 18944 ft | 312 kts | 16° |
| 2026-05-06 02:14 | -13.47482 | -71.66421 | 19478 ft | 314 kts | 5° |
| 2026-05-06 02:14 | -13.45293 | -71.66474 | 19946 ft | 317 kts | 353° |
| 2026-05-06 02:14 | -13.43133 | -71.66982 | 20434 ft | 320 kts | 342° |
| 2026-05-06 02:14 | -13.41095 | -71.67937 | 20922 ft | 325 kts | 330° |
| 2026-05-06 02:15 | -13.39266 | -71.69315 | 21422 ft | 329 kts | 318° |
| 2026-05-06 02:15 | -13.37734 | -71.71071 | 21923 ft | 333 kts | 306° |
| 2026-05-06 02:15 | -13.36578 | -71.73146 | 22410 ft | 338 kts | 294° |
| 2026-05-06 02:15 | -13.35858 | -71.75453 | 22880 ft | 342 kts | 284° |
| 2026-05-06 02:16 | -13.35287 | -71.77793 | 23364 ft | 344 kts | 286° |
| 2026-05-06 02:16 | -13.34681 | -71.80175 | 23822 ft | 346 kts | 286° |
| 2026-05-06 02:16 | -13.34069 | -71.82577 | 24227 ft | 349 kts | 286° |
| 2026-05-06 02:16 | -13.33460 | -71.84991 | 24653 ft | 349 kts | 286° |
| 2026-05-06 02:17 | -13.32855 | -71.87407 | 25061 ft | 350 kts | 286° |
| 2026-05-06 02:17 | -13.32249 | -71.89834 | 25452 ft | 352 kts | 286° |
| 2026-05-06 02:17 | -13.31641 | -71.92270 | 25831 ft | 353 kts | 286° |
| 2026-05-06 02:17 | -13.31034 | -71.94706 | 26208 ft | 354 kts | 286° |
| 2026-05-06 02:18 | -13.30628 | -71.96337 | 26456 ft | 355 kts | 286° |
| 2026-05-06 02:18 | -13.29815 | -71.99599 | 26907 ft | 356 kts | 286° |
| 2026-05-06 02:18 | -13.29200 | -72.02065 | 27270 ft | 358 kts | 286° |
| 2026-05-06 02:18 | -13.28580 | -72.04546 | 27605 ft | 359 kts | 286° |